Time;durP1;ratioP1;P1;durP2;ratioP2;P2;SDS_P1;SDS_P2;PMS_P1;PMS_P2;Temp;Humidity;BMP_temperature;BMP_pressure;BME280_temperature;BME280_humidity;BME280_pressure;Samples;Min_cycle;Max_cycle;Signal;HPM_P1;HPM_P2
2021/06/11 00:00:48;;;;;;;5.58;4.85;;;;;;;18.44;70.70;98843.37;1707601;82;21596;-57
2021/06/11 00:03:14;;;;;;;5.10;4.70;;;;;;;18.48;70.67;98844.03;1697920;82;21154;-58
2021/06/11 00:05:41;;;;;;;5.10;4.70;;;;;;;18.53;70.58;98845.22;1656149;86;20953;-58
2021/06/11 00:08:08;;;;;;;5.55;5.05;;;;;;;18.59;70.45;98844.28;1686145;83;21026;-58
2021/06/11 00:10:36;;;;;;;7.05;5.30;;;;;;;18.62;70.29;98850.52;1681051;83;21046;-58
2021/06/11 00:13:05;;;;;;;5.17;4.70;;;;;;;18.65;70.20;98846.00;1657603;86;20942;-58
2021/06/11 00:15:32;;;;;;;5.85;5.30;;;;;;;18.69;70.02;98845.31;1684026;83;21083;-58
2021/06/11 00:17:58;;;;;;;5.35;4.85;;;;;;;18.59;69.97;98847.77;1686081;83;21524;-57
2021/06/11 00:20:24;;;;;;;5.20;4.78;;;;;;;18.49;70.16;98848.38;1645437;86;21038;-58
2021/06/11 00:22:51;;;;;;;5.37;4.87;;;;;;;18.44;70.35;98850.92;1681652;83;21479;-58
2021/06/11 00:25:23;;;;;;;5.03;4.37;;;;;;;18.45;70.58;98853.09;1684049;83;21019;-58
2021/06/11 00:27:50;;;;;;;5.20;4.70;;;;;;;18.51;70.55;98848.13;1686100;83;21162;-58
2021/06/11 00:30:19;;;;;;;5.75;4.50;;;;;;;18.55;70.48;98845.27;1657790;86;21047;-58
2021/06/11 00:32:45;;;;;;;6.72;4.87;;;;;;;18.57;70.40;98843.67;1683003;83;21034;-58
2021/06/11 00:35:13;;;;;;;6.30;5.80;;;;;;;18.56;70.34;98845.57;1666240;83;20998;-58
2021/06/11 00:37:41;;;;;;;5.85;5.35;;;;;;;18.58;70.30;98845.32;1669612;83;21074;-58
2021/06/11 00:40:09;;;;;;;6.78;4.85;;;;;;;18.60;70.17;98844.55;1685064;83;21146;-58
2021/06/11 00:42:36;;;;;;;7.95;5.67;;;;;;;18.55;70.13;98847.96;1681260;83;21038;-58
2021/06/11 00:45:04;;;;;;;6.08;5.55;;;;;;;18.46;70.21;98847.46;1657579;86;20931;-58
2021/06/11 00:47:30;;;;;;;8.18;5.40;;;;;;;18.39;70.19;98852.16;1680668;83;21177;-58
2021/06/11 00:49:56;;;;;;;5.78;5.28;;;;;;;18.25;70.64;98854.00;1718437;81;21560;-58
2021/06/11 00:52:23;;;;;;;6.20;5.53;;;;;;;18.18;70.93;98847.36;1726002;81;21163;-58
2021/06/11 00:54:49;;;;;;;5.92;5.42;;;;;;;18.19;71.08;98845.50;1730425;81;20954;-58
2021/06/11 00:57:16;;;;;;;6.58;5.90;;;;;;;18.21;71.08;98848.25;1722484;81;21472;-59
2021/06/11 00:59:46;;;;;;;6.33;5.47;;;;;;;18.21;71.05;98840.69;1726549;81;20914;-59
2021/06/11 01:02:11;;;;;;;6.45;5.85;;;;;;;18.21;71.12;98842.04;1729075;81;21543;-59
2021/06/11 01:04:37;;;;;;;6.40;5.80;;;;;;;18.20;70.97;98845.25;1730492;81;21152;-59
2021/06/11 01:07:04;;;;;;;6.53;5.92;;;;;;;18.11;71.04;98845.84;1728380;81;20994;-59
2021/06/11 01:09:30;;;;;;;6.97;6.37;;;;;;;17.88;71.59;98847.45;1730611;81;21046;-59
2021/06/11 01:11:57;;;;;;;9.65;6.30;;;;;;;17.74;72.08;98844.70;1729563;81;21033;-59
2021/06/11 01:14:23;;;;;;;6.95;6.25;;;;;;;17.69;72.34;98855.85;1730140;81;20985;-59
2021/06/11 01:16:51;;;;;;;6.58;5.97;;;;;;;17.71;72.42;98849.70;1730413;81;21155;-59
2021/06/11 01:19:23;;;;;;;6.80;6.00;;;;;;;17.71;72.63;98851.88;1723643;81;20966;-59
2021/06/11 01:22:22;;;;;;;7.12;6.42;;;;;;;17.75;72.79;98853.05;1727595;81;20978;-59
2021/06/11 01:25:11;;;;;;;6.47;5.97;;;;;;;17.72;72.73;98850.02;1730596;81;20918;-59
2021/06/11 01:27:39;;;;;;;6.62;6.00;;;;;;;17.63;73.02;98848.17;1718607;81;21065;-60
2021/06/11 01:30:15;;;;;;;8.43;6.75;;;;;;;17.61;73.16;98852.97;1725990;81;21487;-60
2021/06/11 01:32:42;;;;;;;9.48;6.83;;;;;;;17.57;73.36;98846.95;1729718;81;21513;-57
2021/06/11 01:35:13;;;;;;;7.20;6.17;;;;;;;17.59;73.56;98841.63;1729558;81;21492;-57
2021/06/11 01:37:40;;;;;;;6.90;6.30;;;;;;;17.70;73.55;98835.98;1730460;81;20950;-59
2021/06/11 01:40:10;;;;;;;8.50;7.70;;;;;;;17.69;73.37;98845.09;1701032;81;21516;-59
2021/06/11 01:42:40;;;;;;;7.03;6.53;;;;;;;17.58;73.58;98848.56;1730660;81;21832;-58
2021/06/11 01:45:10;;;;;;;7.75;6.97;;;;;;;17.54;73.89;98851.44;1728542;81;21526;-59
2021/06/11 01:47:40;;;;;;;7.75;6.95;;;;;;;17.58;73.89;98848.56;1729542;81;21018;-58
2021/06/11 01:50:08;;;;;;;7.58;6.83;;;;;;;17.53;74.02;98845.75;1701927;83;21595;-59
2021/06/11 01:52:34;;;;;;;9.85;6.62;;;;;;;17.51;74.11;98841.10;1703544;81;21033;-59
2021/06/11 01:55:01;;;;;;;7.37;6.50;;;;;;;17.53;74.21;98843.06;1730810;81;21880;-59
2021/06/11 01:57:28;;;;;;;8.88;7.85;;;;;;;17.57;74.15;98840.23;1718228;81;21022;-58
2021/06/11 01:59:55;;;;;;;11.40;8.28;;;;;;;17.54;74.33;98837.98;1656493;83;20944;-59
2021/06/11 02:02:22;;;;;;;11.83;8.15;;;;;;;17.54;74.56;98831.27;1713791;81;20998;-58
2021/06/11 02:04:48;;;;;;;11.22;7.60;;;;;;;17.62;74.68;98834.45;1709947;81;21034;-59
2021/06/11 02:07:15;;;;;;;9.25;7.28;;;;;;;17.75;74.45;98833.42;1684008;83;21166;-59
2021/06/11 02:09:41;;;;;;;9.23;8.15;;;;;;;17.83;74.13;98834.42;1707688;81;21498;-58
2021/06/11 02:12:09;;;;;;;9.05;7.05;;;;;;;17.76;74.18;98839.07;1710978;81;21571;-59
2021/06/11 02:14:36;;;;;;;8.33;7.45;;;;;;;17.73;74.29;98844.91;1701506;81;20926;-59
2021/06/11 02:17:04;;;;;;;7.20;6.60;;;;;;;17.74;74.28;98849.25;1715502;81;21041;-59
2021/06/11 02:19:31;;;;;;;8.20;7.50;;;;;;;17.75;74.27;98853.59;1729190;83;21916;-59
2021/06/11 02:21:57;;;;;;;7.60;6.87;;;;;;;17.75;74.29;98852.25;1720356;83;21033;-57
2021/06/11 02:24:24;;;;;;;8.80;7.95;;;;;;;17.81;74.23;98858.03;1713831;83;21026;-59
2021/06/11 02:26:50;;;;;;;8.03;7.33;;;;;;;17.85;74.16;98855.19;1713338;83;21076;-59
2021/06/11 02:29:17;;;;;;;8.53;7.58;;;;;;;17.90;74.09;98858.00;1712528;83;20910;-59
2021/06/11 02:31:44;;;;;;;8.80;7.80;;;;;;;17.89;74.17;98864.42;1715768;83;21129;-59
2021/06/11 02:34:13;;;;;;;8.00;7.20;;;;;;;17.89;74.31;98861.73;1717970;83;21017;-59
2021/06/11 02:36:42;;;;;;;7.85;7.05;;;;;;;17.94;74.45;98863.20;1713746;83;20943;-60
2021/06/11 02:39:09;;;;;;;7.12;6.42;;;;;;;18.04;74.33;98863.44;1710552;83;21030;-59
2021/06/11 02:41:42;;;;;;;7.40;6.67;;;;;;;18.09;74.35;98864.94;1713720;83;21077;-59
2021/06/11 02:44:11;;;;;;;7.90;7.25;;;;;;;18.19;74.18;98869.20;1716234;83;21134;-59
2021/06/11 02:46:59;;;;;;;7.70;7.00;;;;;;;18.30;73.84;98869.71;1714741;83;21535;-59
2021/06/11 02:49:39;;;;;;;7.92;7.22;;;;;;;18.37;73.54;98873.13;1702369;83;21123;-60
2021/06/11 02:52:07;;;;;;;7.45;6.80;;;;;;;18.43;73.16;98872.17;1695907;83;20935;-59
2021/06/11 02:54:39;;;;;;;8.30;7.50;;;;;;;18.42;73.00;98870.55;1700093;82;21566;-58
2021/06/11 02:57:10;;;;;;;7.37;6.62;;;;;;;18.42;72.89;98866.51;1701262;82;21153;-57
2021/06/11 02:59:50;;;;;;;7.87;7.10;;;;;;;18.48;72.79;98868.82;1689717;83;20970;-59
2021/06/11 03:02:28;;;;;;;7.05;6.47;;;;;;;18.61;72.49;98867.75;1700882;82;21076;-59
2021/06/11 03:04:54;;;;;;;8.10;6.75;;;;;;;18.72;72.10;98870.96;1678017;85;21058;-59
2021/06/11 03:07:26;;;;;;;6.90;6.40;;;;;;;18.77;71.93;98876.45;1683972;85;21099;-59
2021/06/11 03:09:56;;;;;;;7.20;6.60;;;;;;;18.84;71.63;98870.41;1654433;86;21524;-59
2021/06/11 03:12:23;;;;;;;7.17;6.47;;;;;;;18.97;71.54;98872.83;1685604;85;21507;-59
2021/06/11 03:14:52;;;;;;;7.35;6.62;;;;;;;19.11;70.89;98868.27;1679056;85;21011;-59
2021/06/11 03:17:19;;;;;;;7.97;6.80;;;;;;;19.28;70.63;98865.63;1653051;86;20958;-59
2021/06/11 03:19:52;;;;;;;8.03;7.22;;;;;;;19.61;69.94;98868.43;1684364;85;20972;-59
2021/06/11 03:22:21;;;;;;;9.00;6.53;;;;;;;19.88;69.21;98874.55;1654198;86;21072;-60
2021/06/11 03:24:56;;;;;;;7.72;7.03;;;;;;;20.22;68.29;98875.67;1682933;85;20978;-58
2021/06/11 03:27:36;;;;;;;8.38;7.67;;;;;;;20.65;66.63;98874.17;1681377;85;21631;-60
2021/06/11 03:30:12;;;;;;;7.05;6.45;;;;;;;21.04;65.43;98873.59;1669331;85;21007;-59
2021/06/11 03:32:48;;;;;;;8.90;7.62;;;;;;;21.50;63.93;98875.23;1658132;83;20962;-59
2021/06/11 03:35:25;;;;;;;8.18;7.28;;;;;;;21.93;62.56;98882.42;1665952;83;23345;-62
2021/06/11 03:37:54;;;;;;;8.33;7.53;;;;;;;22.26;61.28;98884.59;1658840;83;21035;-59
2021/06/11 03:40:27;;;;;;;8.13;7.42;;;;;;;22.35;60.26;98890.61;1637282;85;21612;-59
2021/06/11 03:42:53;;;;;;;8.63;7.72;;;;;;;22.38;59.72;98888.74;1669104;83;20986;-58
2021/06/11 03:45:20;;;;;;;8.65;7.10;;;;;;;22.32;59.18;98892.48;1667533;83;21046;-59
2021/06/11 03:47:48;;;;;;;8.30;7.60;;;;;;;22.10;59.32;98888.55;1677954;85;21117;-58
2021/06/11 03:50:23;;;;;;;8.48;7.50;;;;;;;22.01;59.52;98890.61;1661147;84;21036;-67
2021/06/11 03:52:49;;;;;;;8.85;7.95;;;;;;;21.98;59.64;98891.13;1669981;83;21574;-58
2021/06/11 03:55:21;;;;;;;8.25;7.53;;;;;;;21.98;59.64;98892.47;1662768;83;21116;-57
2021/06/11 03:57:53;;;;;;;9.20;8.23;;;;;;;21.97;59.73;98895.74;1668650;85;21044;-58
2021/06/11 04:00:21;;;;;;;8.25;7.55;;;;;;;21.95;59.39;98894.37;1671598;85;21827;-57
2021/06/11 04:02:48;;;;;;;8.50;7.80;;;;;;;21.89;59.41;98889.44;1722769;83;20931;-57
2021/06/11 04:05:15;;;;;;;8.88;8.08;;;;;;;21.86;59.41;98887.24;1725644;83;21128;-57
2021/06/11 04:07:52;;;;;;;10.32;7.42;;;;;;;21.89;59.73;98884.55;1729865;83;20989;-57
2021/06/11 04:10:41;;;;;;;7.55;6.95;;;;;;;22.11;59.83;98886.63;1717241;81;20949;-58
2021/06/11 04:13:34;;;;;;;8.08;7.37;;;;;;;22.30;58.89;98889.22;1701474;81;21180;-58
2021/06/11 04:16:01;;;;;;;9.20;7.78;;;;;;;22.39;58.31;98890.92;1701327;81;20910;-58
2021/06/11 04:18:30;;;;;;;9.95;7.70;;;;;;;22.42;58.16;98886.34;1700415;83;20985;-59
2021/06/11 04:20:59;;;;;;;8.58;7.78;;;;;;;22.37;58.12;98891.16;1712212;81;21975;-58
2021/06/11 04:23:29;;;;;;;9.23;8.33;;;;;;;22.50;58.17;98892.62;1701491;81;21101;-58
2021/06/11 04:25:56;;;;;;;9.78;8.98;;;;;;;22.84;57.76;98886.35;1707618;81;21747;-58
2021/06/11 04:28:23;;;;;;;10.48;9.50;;;;;;;23.27;56.95;98890.88;1709010;81;21002;-59
2021/06/11 04:30:53;;;;;;;10.88;9.98;;;;;;;23.71;55.83;98895.89;1729384;83;20938;-60
2021/06/11 04:33:25;;;;;;;10.82;9.73;;;;;;;24.18;54.41;98885.64;1709746;81;20958;-60
2021/06/11 04:35:51;;;;;;;10.30;9.30;;;;;;;24.60;53.39;98892.11;1702687;81;21507;-61
2021/06/11 04:38:18;;;;;;;9.43;8.58;;;;;;;24.99;52.44;98883.61;1708028;81;21559;-58
2021/06/11 04:40:45;;;;;;;9.60;8.65;;;;;;;25.41;51.48;98883.68;1724521;83;21029;-60
2021/06/11 04:43:12;;;;;;;9.78;8.85;;;;;;;25.83;50.01;98889.99;1724216;83;20997;-58
2021/06/11 04:45:39;;;;;;;10.32;9.28;;;;;;;26.09;49.15;98879.98;1723655;83;21548;-62
2021/06/11 04:48:06;;;;;;;10.25;9.25;;;;;;;26.32;48.51;98876.54;1730115;83;20941;-62
2021/06/11 04:50:32;;;;;;;11.25;9.13;;;;;;;26.51;48.13;98882.09;1723394;83;21240;-58
2021/06/11 04:52:59;;;;;;;9.13;8.28;;;;;;;26.76;47.49;98879.09;1719062;81;21001;-60
2021/06/11 04:55:26;;;;;;;8.53;7.83;;;;;;;26.97;46.77;98883.80;1701242;81;20961;-60
2021/06/11 04:57:54;;;;;;;9.13;8.23;;;;;;;27.26;45.91;98874.16;1703197;81;21041;-59
2021/06/11 05:00:21;;;;;;;8.45;7.65;;;;;;;27.44;45.14;98877.48;1701243;81;21005;-59
2021/06/11 05:02:47;;;;;;;10.00;8.73;;;;;;;27.62;44.93;98880.78;1700969;81;21152;-58
2021/06/11 05:05:14;;;;;;;9.25;7.87;;;;;;;27.91;44.24;98877.34;1701152;81;21531;-59
2021/06/11 05:07:41;;;;;;;7.97;7.17;;;;;;;28.15;43.18;98869.88;1703262;81;21144;-58
2021/06/11 05:10:10;;;;;;;8.45;7.75;;;;;;;28.35;42.61;98871.44;1701243;81;21049;-58
2021/06/11 05:12:36;;;;;;;9.40;8.60;;;;;;;28.56;42.18;98870.51;1713659;81;21030;-57
2021/06/11 05:15:04;;;;;;;9.48;8.65;;;;;;;28.76;41.70;98875.63;1704492;81;21220;-59
2021/06/11 05:17:31;;;;;;;9.80;8.90;;;;;;;28.93;41.30;98871.74;1709627;81;21058;-66
2021/06/11 05:19:58;;;;;;;11.38;10.28;;;;;;;29.07;40.99;98864.31;1701727;81;20951;-59
2021/06/11 05:22:24;;;;;;;10.90;9.90;;;;;;;29.24;40.42;98873.32;1701314;81;20950;-58
2021/06/11 05:24:51;;;;;;;11.12;9.60;;;;;;;29.35;40.05;98869.25;1701432;81;21514;-58
2021/06/11 05:27:17;;;;;;;9.40;8.60;;;;;;;29.49;40.01;98862.38;1719190;81;21153;-58
2021/06/11 05:29:44;;;;;;;8.78;7.97;;;;;;;29.71;39.79;98864.59;1729273;83;20887;-59
2021/06/11 05:32:10;;;;;;;8.70;7.80;;;;;;;30.00;39.25;98870.25;1729238;83;21491;-58
2021/06/11 05:34:37;;;;;;;7.80;7.08;;;;;;;30.27;38.85;98865.42;1730378;83;21053;-59
2021/06/11 05:37:05;;;;;;;8.20;7.40;;;;;;;30.50;38.18;98860.17;1723714;83;20958;-57
2021/06/11 05:39:31;;;;;;;9.05;7.62;;;;;;;30.71;37.48;98862.39;1727883;83;21083;-61
2021/06/11 05:41:58;;;;;;;8.25;7.53;;;;;;;30.90;37.24;98863.75;1725906;83;21057;-61
2021/06/11 05:44:26;;;;;;;7.95;7.08;;;;;;;31.27;36.70;98861.62;1725393;83;20895;-61
2021/06/11 05:46:52;;;;;;;9.65;8.00;;;;;;;31.74;36.17;98860.18;1710370;81;21522;-61
2021/06/11 05:49:19;;;;;;;9.83;8.93;;;;;;;32.21;35.34;98867.20;1700902;81;21021;-62
2021/06/11 05:51:46;;;;;;;9.58;8.03;;;;;;;32.47;34.61;98854.75;1709889;81;21421;-61
2021/06/11 05:54:12;;;;;;;8.98;7.95;;;;;;;32.64;34.34;98859.66;1730388;81;20962;-61
2021/06/11 05:56:39;;;;;;;11.68;8.43;;;;;;;32.56;34.33;98862.47;1730523;81;21054;-61
2021/06/11 05:59:05;;;;;;;8.65;7.85;;;;;;;32.38;34.35;98865.00;1717144;81;21496;-60
2021/06/11 06:01:32;;;;;;;8.85;7.95;;;;;;;31.98;34.59;98865.75;1729606;83;20954;-60
2021/06/11 06:03:58;;;;;;;9.75;8.05;;;;;;;31.52;35.11;98869.94;1729696;83;22007;-59
2021/06/11 06:06:25;;;;;;;11.45;7.62;;;;;;;31.03;35.81;98866.98;1726536;83;20985;-60
2021/06/11 06:08:52;;;;;;;10.30;8.90;;;;;;;30.61;36.35;98864.83;1726932;83;20958;-60
2021/06/11 06:11:18;;;;;;;8.08;7.37;;;;;;;30.12;37.07;98869.11;1708545;81;21550;-59
2021/06/11 06:13:46;;;;;;;10.20;6.80;;;;;;;29.56;37.96;98865.50;1701222;81;21010;-60
2021/06/11 06:16:12;;;;;;;8.00;7.30;;;;;;;29.03;38.89;98866.06;1701349;81;21167;-60
2021/06/11 06:18:39;;;;;;;8.35;6.60;;;;;;;28.70;39.65;98873.56;1701289;81;20950;-59
2021/06/11 06:21:05;;;;;;;7.90;7.17;;;;;;;28.41;39.93;98877.62;1701701;81;20993;-60
2021/06/11 06:23:32;;;;;;;9.40;7.45;;;;;;;28.09;40.66;98879.81;1701342;81;21030;-60
2021/06/11 06:25:58;;;;;;;8.65;7.70;;;;;;;27.98;41.28;98873.66;1701496;81;21574;-59
2021/06/11 06:28:24;;;;;;;9.13;7.87;;;;;;;27.83;41.84;98876.64;1701323;81;21228;-59
2021/06/11 06:30:51;;;;;;;6.83;6.30;;;;;;;27.69;42.11;98870.86;1711710;81;20998;-59
2021/06/11 06:33:17;;;;;;;7.55;6.62;;;;;;;27.53;42.15;98868.33;1728114;83;21037;-59
2021/06/11 06:35:43;;;;;;;11.78;7.12;;;;;;;27.43;42.55;98871.75;1727388;83;20939;-59
2021/06/11 06:38:13;;;;;;;7.30;6.55;;;;;;;27.41;43.15;98869.88;1729321;83;21050;-60
2021/06/11 06:40:38;;;;;;;6.35;5.85;;;;;;;27.43;43.18;98864.92;1729180;83;22369;-60
2021/06/11 06:43:04;;;;;;;6.55;6.05;;;;;;;27.45;43.24;98867.63;1730634;83;20887;-59
2021/06/11 06:45:31;;;;;;;6.85;6.25;;;;;;;27.35;43.27;98875.92;1723532;83;20998;-60
2021/06/11 06:47:57;;;;;;;7.37;6.87;;;;;;;27.20;43.51;98880.23;1727717;82;21064;-60
2021/06/11 06:50:24;;;;;;;6.75;6.17;;;;;;;27.13;43.92;98878.42;1727292;83;20871;-59
2021/06/11 06:52:53;;;;;;;6.70;6.12;;;;;;;27.20;44.14;98878.05;1726501;82;21758;-55
2021/06/11 06:55:18;;;;;;;6.97;5.90;;;;;;;27.49;43.82;98881.52;1722062;81;21045;-59
2021/06/11 06:57:44;;;;;;;7.30;6.12;;;;;;;28.00;43.00;98879.63;1721979;83;21454;-60
2021/06/11 07:00:12;;;;;;;6.20;5.58;;;;;;;28.68;41.95;98875.77;1727680;83;21018;-59
2021/06/11 07:02:39;;;;;;;11.80;6.58;;;;;;;29.45;40.75;98870.95;1728541;83;20989;-59
2021/06/11 07:05:07;;;;;;;11.40;6.08;;;;;;;30.25;39.92;98864.12;1727997;81;21810;-61
2021/06/11 07:07:36;;;;;;;7.72;6.92;;;;;;;31.04;38.40;98865.05;1725798;83;20982;-60
2021/06/11 07:10:03;;;;;;;11.03;7.50;;;;;;;31.77;36.94;98865.60;1725595;83;21503;-59
2021/06/11 07:12:31;;;;;;;12.05;8.48;;;;;;;32.37;35.94;98862.80;1726076;83;21026;-59
2021/06/11 07:14:59;;;;;;;13.78;9.10;;;;;;;33.06;34.86;98872.25;1724532;83;21034;-59
2021/06/11 07:17:26;;;;;;;9.45;7.70;;;;;;;33.83;33.10;98859.34;1728151;83;21141;-60
2021/06/11 07:19:53;;;;;;;10.13;8.88;;;;;;;34.50;31.95;98867.30;1727172;83;21503;-58
2021/06/11 07:22:20;;;;;;;14.03;9.03;;;;;;;35.08;30.73;98860.06;1729406;83;20997;-59
2021/06/11 07:24:47;;;;;;;8.95;8.05;;;;;;;35.42;29.72;98866.25;1729808;83;20954;-59
2021/06/11 07:27:13;;;;;;;8.30;7.60;;;;;;;35.67;29.35;98859.53;1727001;83;20994;-59
2021/06/11 07:29:43;;;;;;;7.37;6.45;;;;;;;36.04;28.81;98858.86;1726944;83;21111;-59
2021/06/11 07:32:10;;;;;;;5.78;4.78;;;;;;;36.40;28.07;98862.25;1724419;83;21000;-60
2021/06/11 07:34:37;;;;;;;6.05;5.40;;;;;;;36.71;27.67;98866.27;1728302;83;21472;-60
2021/06/11 07:37:04;;;;;;;9.40;6.60;;;;;;;37.13;26.65;98861.78;1727114;83;20962;-59
2021/06/11 07:39:31;;;;;;;9.05;7.30;;;;;;;37.23;26.24;98860.44;1729336;82;21049;-61
2021/06/11 07:41:57;;;;;;;11.15;7.05;;;;;;;37.40;26.36;98869.20;1729646;83;21116;-60
2021/06/11 07:44:24;;;;;;;6.12;5.62;;;;;;;37.78;26.00;98857.33;1726443;83;21416;-59
2021/06/11 07:46:50;;;;;;;6.97;4.42;;;;;;;38.07;25.34;98855.97;1726547;83;21010;-68
2021/06/11 07:49:17;;;;;;;6.22;5.55;;;;;;;38.42;24.96;98865.03;1725190;83;21505;-60
2021/06/11 07:51:43;;;;;;;5.28;4.78;;;;;;;38.70;24.62;98858.59;1718304;81;21144;-60
2021/06/11 07:54:11;;;;;;;6.25;4.55;;;;;;;38.89;24.30;98865.50;1700680;81;40509;-60
2021/06/11 07:56:37;;;;;;;5.80;4.42;;;;;;;38.76;24.13;98852.97;1700374;81;21013;-60
2021/06/11 07:59:04;;;;;;;5.37;4.87;;;;;;;38.65;24.26;98856.70;1701680;81;20958;-60
2021/06/11 08:01:33;;;;;;;5.80;4.58;;;;;;;38.57;24.21;98854.38;1706643;81;20969;-60
2021/06/11 08:03:59;;;;;;;5.75;4.10;;;;;;;38.54;24.52;98852.34;1701465;81;21048;-60
2021/06/11 08:06:26;;;;;;;6.28;3.80;;;;;;;38.72;24.47;98847.89;1700699;81;21598;-60
2021/06/11 08:08:52;;;;;;;4.45;4.05;;;;;;;38.86;24.59;98848.17;1701237;81;20954;-61
2021/06/11 08:11:18;;;;;;;4.47;4.17;;;;;;;38.97;24.13;98846.16;1701425;81;20942;-60
2021/06/11 08:13:45;;;;;;;4.92;3.77;;;;;;;38.79;23.78;98849.45;1733105;81;21468;-60
2021/06/11 08:16:11;;;;;;;6.53;4.80;;;;;;;38.56;24.18;98848.59;1715380;81;21013;-60
2021/06/11 08:18:38;;;;;;;5.72;4.62;;;;;;;38.56;24.17;98843.66;1702437;81;21165;-59
2021/06/11 08:21:05;;;;;;;5.17;4.70;;;;;;;38.60;24.32;98838.37;1701319;81;21018;-60
2021/06/11 08:23:31;;;;;;;4.40;3.98;;;;;;;38.44;24.54;98840.45;1701324;81;21050;-60
2021/06/11 08:25:58;;;;;;;6.87;4.42;;;;;;;38.22;24.70;98845.38;1701435;81;21132;-59
2021/06/11 08:28:24;;;;;;;4.22;3.92;;;;;;;37.95;24.58;98845.84;1701269;81;21061;-60
2021/06/11 08:30:50;;;;;;;8.18;4.05;;;;;;;37.56;24.90;98845.00;1701366;81;21155;-60
2021/06/11 08:33:17;;;;;;;5.25;4.20;;;;;;;37.44;25.19;98841.55;1701384;81;20898;-59
2021/06/11 08:35:43;;;;;;;6.62;4.20;;;;;;;37.32;25.16;98845.20;1701468;81;21564;-60
2021/06/11 08:38:12;;;;;;;3.98;3.50;;;;;;;37.11;25.55;98841.36;1701398;81;21065;-60
2021/06/11 08:40:39;;;;;;;4.30;3.90;;;;;;;37.13;25.97;98838.22;1706650;81;21503;-60
2021/06/11 08:43:06;;;;;;;5.20;4.15;;;;;;;37.15;26.16;98835.09;1701604;81;21218;-60
2021/06/11 08:45:33;;;;;;;6.00;4.20;;;;;;;37.19;25.87;98827.08;1701245;81;21036;-60
2021/06/11 08:47:59;;;;;;;5.87;4.40;;;;;;;37.30;26.15;98825.36;1701267;81;21041;-60
2021/06/11 08:50:28;;;;;;;5.15;4.20;;;;;;;37.33;26.05;98821.05;1698255;81;21019;-61
2021/06/11 08:52:56;;;;;;;5.80;4.33;;;;;;;37.09;26.54;98821.52;1726376;81;21057;-60
2021/06/11 08:55:23;;;;;;;5.05;4.20;;;;;;;36.90;26.61;98821.98;1730597;81;21220;-60
2021/06/11 08:57:49;;;;;;;10.30;4.45;;;;;;;36.97;26.82;98818.05;1730382;81;20950;-60
2021/06/11 09:00:17;;;;;;;4.50;3.77;;;;;;;37.15;26.27;98806.80;1730536;81;21578;-59
2021/06/11 09:03:21;;;;;;;3.85;3.50;;;;;;;37.24;25.64;98806.00;1730546;81;20923;-59
2021/06/11 09:06:06;;;;;;;3.67;3.37;;;;;;;37.32;25.24;98810.54;1730179;81;20927;-60
2021/06/11 09:08:33;;;;;;;5.80;4.00;;;;;;;37.45;24.89;98801.53;1730896;81;21141;-61
2021/06/11 09:11:21;;;;;;;3.40;3.10;;;;;;;37.42;24.72;98801.67;1730530;81;20919;-61
2021/06/11 09:14:03;;;;;;;4.10;3.80;;;;;;;37.21;24.67;98795.63;1730457;81;21064;-61
2021/06/11 09:16:30;;;;;;;6.80;3.37;;;;;;;36.89;24.95;98799.01;1730567;81;20997;-61
2021/06/11 09:19:02;;;;;;;3.70;3.40;;;;;;;35.94;25.60;98802.03;1703570;83;20938;-59
2021/06/11 09:21:44;;;;;;;5.78;3.83;;;;;;;35.38;26.03;98803.95;1727916;81;21152;-59
2021/06/11 09:24:21;;;;;;;6.08;3.17;;;;;;;35.12;26.71;98802.94;1730957;81;20946;-60
2021/06/11 09:27:06;;;;;;;;;;;;;;;34.97;27.51;98794.52;1732824;81;20938;-60
2021/06/11 09:29:39;;;;;;;4.05;3.20;;;;;;;34.90;27.45;98799.82;1730273;81;20131;-61
2021/06/11 09:32:22;;;;;;;5.40;3.20;;;;;;;34.92;27.55;98784.51;1729930;81;21006;-61
2021/06/11 09:34:58;;;;;;;7.35;4.20;;;;;;;34.94;27.06;98783.58;1729610;81;21144;-60
2021/06/11 09:37:30;;;;;;;7.85;3.02;;;;;;;34.80;27.01;98789.23;1730471;81;21485;-60
2021/06/11 09:40:03;;;;;;;4.33;3.77;;;;;;;34.41;27.22;98797.02;1730283;81;20898;-60
2021/06/11 09:42:34;;;;;;;5.53;3.45;;;;;;;34.07;30.93;98816.72;1730482;81;20989;-60
2021/06/11 09:45:06;;;;;;;7.72;3.47;;;;;;;33.83;30.50;98823.48;1730810;81;20935;-60
2021/06/11 09:47:39;;;;;;;4.65;3.17;;;;;;;33.41;32.09;98832.31;1710014;81;21147;-60
2021/06/11 09:50:15;;;;;;;5.62;3.27;;;;;;;32.93;32.40;98843.18;1716450;81;21557;-60
2021/06/11 09:52:54;;;;;;;8.70;4.08;;;;;;;32.54;34.10;98849.61;1723162;81;20954;-60
2021/06/11 09:55:33;;;;;;;4.17;2.95;;;;;;;32.00;37.79;98840.13;1730724;81;21014;-60
2021/06/11 09:58:24;;;;;;;5.42;2.95;;;;;;;30.67;35.84;98833.38;1730596;81;21070;-60
2021/06/11 10:00:59;;;;;;;5.42;3.33;;;;;;;29.04;36.33;98833.47;1730808;81;21103;-58
2021/06/11 10:03:34;;;;;;;5.50;3.12;;;;;;;27.81;37.79;98839.23;1730720;81;21024;-60
2021/06/11 10:06:09;;;;;;;5.42;3.72;;;;;;;26.81;39.52;98835.95;1731013;81;21022;-60
2021/06/11 10:08:37;;;;;;;4.33;3.20;;;;;;;26.21;40.90;98839.55;1730605;81;20950;-61
2021/06/11 10:11:06;;;;;;;4.08;3.67;;;;;;;26.07;41.27;98833.67;1730983;81;21005;-60
2021/06/11 10:13:33;;;;;;;3.87;2.67;;;;;;;25.78;41.21;98828.19;1730790;81;21147;-60
2021/06/11 10:16:08;;;;;;;3.98;2.77;;;;;;;25.70;40.70;98830.98;1730822;81;20922;-60
2021/06/11 10:18:35;;;;;;;3.72;2.87;;;;;;;25.66;41.69;98829.90;1730838;81;20950;-60
2021/06/11 10:21:02;;;;;;;3.00;2.60;;;;;;;25.80;40.39;98824.63;1730958;81;20895;-60
2021/06/11 10:23:30;;;;;;;3.00;2.80;;;;;;;25.88;41.42;98826.75;1730722;81;21009;-61
2021/06/11 10:25:58;;;;;;;3.17;2.87;;;;;;;25.73;41.35;98824.94;1726071;81;21141;-60
2021/06/11 10:28:28;;;;;;;4.67;3.62;;;;;;;25.73;42.02;98824.15;1724452;81;20914;-60
2021/06/11 10:31:05;;;;;;;5.87;3.85;;;;;;;25.84;43.80;98820.22;1726219;82;21026;-61
2021/06/11 10:33:52;;;;;;;10.65;5.90;;;;;;;25.96;44.98;98811.69;1727331;83;21013;-60
2021/06/11 10:36:47;;;;;;;7.62;5.58;;;;;;;26.10;45.96;98811.27;1727290;83;21097;-60
2021/06/11 10:39:16;;;;;;;5.12;4.65;;;;;;;26.22;46.49;98811.75;1720741;83;21185;-59
2021/06/11 10:41:59;;;;;;;6.20;4.42;;;;;;;26.28;46.31;98803.80;1728810;82;20989;-59
2021/06/11 10:44:32;;;;;;;7.78;4.83;;;;;;;26.31;46.60;98808.10;1719586;81;20899;-60
2021/06/11 10:47:22;;;;;;;4.97;4.60;;;;;;;26.34;47.44;98804.80;1729691;82;21081;-60
2021/06/11 10:50:05;;;;;;;4.95;4.55;;;;;;;26.27;48.52;98806.25;1724301;83;21643;-60
2021/06/11 10:52:49;;;;;;;9.98;5.05;;;;;;;26.23;49.98;98806.55;1714543;82;21136;-60
2021/06/11 10:55:23;;;;;;;4.97;4.55;;;;;;;26.39;51.30;98802.56;1714528;83;20989;-59
2021/06/11 10:57:59;;;;;;;6.92;5.05;;;;;;;26.56;49.61;98807.58;1713463;83;20989;-60
2021/06/11 11:00:38;;;;;;;6.60;5.85;;;;;;;26.72;50.80;98809.85;1709983;83;21488;-60
2021/06/11 11:03:07;;;;;;;6.85;5.62;;;;;;;26.73;51.65;98814.73;1707434;83;21068;-60
2021/06/11 11:05:37;;;;;;;8.13;5.53;;;;;;;26.48;52.65;98810.39;1713867;83;21489;-60
2021/06/11 11:08:06;;;;;;;5.50;4.65;;;;;;;26.36;52.59;98810.77;1712905;83;21049;-60
2021/06/11 11:10:47;;;;;;;6.62;4.70;;;;;;;26.35;53.45;98812.44;1715011;83;21568;-60
2021/06/11 11:13:21;;;;;;;7.25;4.65;;;;;;;26.47;52.48;98810.66;1655603;86;21371;-61
2021/06/11 11:15:51;;;;;;;5.80;4.42;;;;;;;26.60;51.88;98812.70;1682431;85;21030;-61
2021/06/11 11:18:36;;;;;;;5.65;4.80;;;;;;;26.51;50.75;98804.91;1651409;85;21157;-60
2021/06/11 11:21:35;;;;;;;6.77;4.70;;;;;;;26.48;51.29;98791.30;1683573;85;20903;-60
2021/06/11 11:24:07;;;;;;;4.67;4.28;;;;;;;26.66;50.20;98795.18;1642988;86;21076;-60
2021/06/11 11:26:46;;;;;;;3.60;3.30;;;;;;;26.67;49.53;98788.63;1671491;85;20947;-61
2021/06/11 11:29:15;;;;;;;6.03;3.25;;;;;;;26.88;48.04;98788.67;1679476;83;21109;-60
2021/06/11 11:31:42;;;;;;;3.40;3.10;;;;;;;27.17;45.16;98789.89;1681578;85;21807;-60
2021/06/11 11:34:09;;;;;;;4.00;2.98;;;;;;;27.44;44.67;98788.72;1681717;85;21038;-60
2021/06/11 11:36:35;;;;;;;4.62;3.17;;;;;;;27.64;44.53;98788.98;1655083;86;21013;-59
2021/06/11 11:39:05;;;;;;;3.55;3.17;;;;;;;27.68;43.96;98773.05;1679188;85;21181;-59
2021/06/11 11:41:32;;;;;;;3.15;2.90;;;;;;;27.34;46.89;98786.12;1656620;86;21042;-59
2021/06/11 11:43:59;;;;;;;5.08;3.05;;;;;;;26.89;46.83;98787.55;1684704;85;21129;-60